Time;durP1;ratioP1;P1;durP2;ratioP2;P2;SDS_P1;SDS_P2;PMS_P1;PMS_P2;Temp;Humidity;BMP_temperature;BMP_pressure;BME280_temperature;BME280_humidity;BME280_pressure;Samples;Min_cycle;Max_cycle;Signal;HPM_P1;HPM_P2
2024/04/01 00:02:21;;;;;;;18.48;10.18;;;;;;;8.51;59.25;99468.59;4988374;28;20058;-78
2024/04/01 00:04:47;;;;;;;21.20;11.02;;;;;;;8.55;58.89;99464.91;4970613;28;20033;-78
2024/04/01 00:07:12;;;;;;;20.75;10.95;;;;;;;8.50;59.01;99477.34;4971600;28;20041;-78
2024/04/01 00:09:38;;;;;;;22.40;11.32;;;;;;;8.50;59.42;99474.75;4966065;28;20092;-79
2024/04/01 00:12:03;;;;;;;26.63;11.38;;;;;;;8.55;59.22;99471.88;4974720;28;20096;-78
2024/04/01 00:14:29;;;;;;;23.23;12.55;;;;;;;8.55;59.23;99472.72;4968908;28;20040;-78
2024/04/01 00:16:54;;;;;;;24.67;12.35;;;;;;;8.49;59.25;99475.66;4992484;28;20044;-80
2024/04/01 00:19:20;;;;;;;23.05;11.90;;;;;;;8.52;59.41;99469.47;4970596;28;20477;-78
2024/04/01 00:21:45;;;;;;;18.48;10.85;;;;;;;8.43;59.51;99470.78;4974265;28;20038;-78
2024/04/01 00:24:11;;;;;;;26.90;12.70;;;;;;;8.43;59.40;99467.34;4950948;28;20475;-79
2024/04/01 00:26:36;;;;;;;25.27;11.73;;;;;;;8.36;59.66;99478.09;4952023;28;20030;-77
2024/04/01 00:29:02;;;;;;;20.50;10.95;;;;;;;8.37;59.67;99486.72;4992168;28;20310;-78
2024/04/01 00:31:29;;;;;;;27.95;12.73;;;;;;;8.45;59.22;99489.78;4969099;28;20062;-78
2024/04/01 00:33:56;;;;;;;30.25;13.27;;;;;;;8.53;58.96;99482.38;4951316;28;20117;-77
2024/04/01 00:36:21;;;;;;;21.20;12.23;;;;;;;8.55;58.80;99492.72;4949455;28;20548;-77
2024/04/01 00:38:48;;;;;;;23.83;12.60;;;;;;;8.48;59.06;99481.78;4970690;28;20038;-78
2024/04/01 00:41:13;;;;;;;28.48;13.88;;;;;;;8.36;59.19;99498.91;4961398;28;21414;-78
2024/04/01 00:43:39;;;;;;;33.10;13.68;;;;;;;8.45;58.74;99488.91;4972335;28;20034;-77
2024/04/01 00:46:05;;;;;;;26.38;13.43;;;;;;;8.52;58.76;99490.28;4957044;28;20662;-78
2024/04/01 00:48:30;;;;;;;25.08;12.93;;;;;;;8.54;58.50;99481.47;4985362;28;20045;-78
2024/04/01 00:50:56;;;;;;;23.52;12.65;;;;;;;8.60;58.35;99489.88;4971094;28;20038;-79
2024/04/01 00:53:22;;;;;;;33.78;14.88;;;;;;;8.52;58.45;99491.13;4953879;28;20038;-77
2024/04/01 00:55:48;;;;;;;28.10;14.38;;;;;;;8.50;58.52;99482.56;4973292;28;20473;-79
2024/04/01 00:58:15;;;;;;;31.15;12.73;;;;;;;8.50;58.54;99479.94;4953252;28;20045;-78
2024/04/01 01:00:42;;;;;;;36.47;13.95;;;;;;;8.53;58.53;99476.34;4972509;28;20073;-78
2024/04/01 01:03:08;;;;;;;26.58;12.63;;;;;;;8.45;58.47;99474.16;4988910;28;20085;-78
2024/04/01 01:05:36;;;;;;;34.70;13.13;;;;;;;8.33;58.62;99466.97;4987313;28;20366;-78
2024/04/01 01:08:01;;;;;;;31.25;15.10;;;;;;;8.43;58.31;99476.00;4970236;28;20348;-78
2024/04/01 01:10:28;;;;;;;24.27;13.60;;;;;;;8.44;58.54;99466.41;4954364;28;20109;-78
2024/04/01 01:12:54;;;;;;;27.30;14.13;;;;;;;8.46;58.52;99470.59;4961015;28;20218;-79
2024/04/01 01:15:19;;;;;;;33.00;14.75;;;;;;;8.33;58.86;99474.78;4950362;28;20084;-78
2024/04/01 01:17:45;;;;;;;29.02;14.02;;;;;;;8.40;58.46;99468.31;4971485;28;20189;-79
2024/04/01 01:20:14;;;;;;;30.20;14.35;;;;;;;8.31;58.25;99463.63;4971401;28;20050;-80
2024/04/01 01:22:40;;;;;;;27.17;13.77;;;;;;;8.29;58.50;99468.06;4952266;28;20038;-77
2024/04/01 01:25:09;;;;;;;29.30;14.35;;;;;;;8.24;58.40;99454.47;4969456;28;20401;-77
2024/04/01 01:27:39;;;;;;;30.08;15.40;;;;;;;8.09;58.69;99453.50;4951479;28;20038;-79
2024/04/01 01:30:15;;;;;;;35.25;15.73;;;;;;;8.16;58.46;99449.66;4971500;28;20088;-78
2024/04/01 01:32:47;;;;;;;26.10;14.02;;;;;;;8.12;58.66;99446.38;4969373;28;20041;-78
2024/04/01 01:35:20;;;;;;;;;;;;;;;8.09;58.50;99446.53;4954111;28;20022;-79
2024/04/01 01:37:49;;;;;;;25.13;14.38;;;;;;;7.97;58.51;99434.16;4964567;28;19922;-78
2024/04/01 01:40:14;;;;;;;29.48;14.32;;;;;;;7.88;58.88;99438.06;4971311;28;20221;-77
2024/04/01 01:42:40;;;;;;;26.42;15.73;;;;;;;7.94;58.56;99424.75;4970126;28;20121;-77
2024/04/01 01:45:06;;;;;;;34.35;17.33;;;;;;;7.86;58.15;99433.88;4968087;28;20511;-79
2024/04/01 01:47:35;;;;;;;28.02;14.68;;;;;;;7.88;58.33;99438.06;4965455;28;20064;-78
2024/04/01 01:50:03;;;;;;;34.25;14.43;;;;;;;7.78;58.35;99433.41;4972181;28;20620;-79
2024/04/01 01:52:28;;;;;;;34.28;14.13;;;;;;;7.84;58.30;99430.50;4947089;28;20038;-78
2024/04/01 01:54:54;;;;;;;32.03;15.75;;;;;;;7.73;58.19;99438.84;4949975;28;20115;-76
2024/04/01 01:57:20;;;;;;;28.33;16.23;;;;;;;7.69;58.26;99442.53;4966603;28;20044;-77
2024/04/01 01:59:46;;;;;;;26.65;14.82;;;;;;;7.74;57.85;99431.00;4971760;28;20034;-78
2024/04/01 02:02:12;;;;;;;25.40;15.65;;;;;;;7.74;58.18;99436.19;4968405;28;20041;-79
2024/04/01 02:04:38;;;;;;;33.60;16.63;;;;;;;7.69;57.90;99429.53;4948685;28;20061;-79
2024/04/01 02:07:05;;;;;;;31.48;16.05;;;;;;;7.53;58.18;99432.03;4953726;28;20386;-78
2024/04/01 02:09:31;;;;;;;29.95;15.70;;;;;;;7.54;58.19;99436.34;4984483;28;20033;-79
2024/04/01 02:11:57;;;;;;;37.45;15.93;;;;;;;7.47;58.37;99432.38;4987399;28;20033;-78
2024/04/01 02:14:22;;;;;;;30.65;15.75;;;;;;;7.42;58.36;99421.34;4968310;28;20088;-79
2024/04/01 02:16:48;;;;;;;27.42;14.85;;;;;;;7.17;59.07;99427.75;4957656;28;20033;-79
2024/04/01 02:19:14;;;;;;;35.45;16.48;;;;;;;7.14;58.85;99417.50;4954561;28;20049;-79
2024/04/01 02:21:40;;;;;;;41.58;16.77;;;;;;;7.17;58.44;99425.16;4969022;28;20124;-79
2024/04/01 02:24:06;;;;;;;28.55;16.58;;;;;;;7.12;58.56;99427.13;4970804;28;20544;-78
2024/04/01 02:26:31;;;;;;;34.50;16.33;;;;;;;7.10;58.70;99419.41;4967592;28;20041;-78
2024/04/01 02:28:57;;;;;;;32.60;15.13;;;;;;;7.10;58.52;99418.56;4970617;28;20141;-78
2024/04/01 02:31:22;;;;;;;29.48;14.60;;;;;;;7.11;58.30;99421.09;4968151;28;20124;-77
2024/04/01 02:33:47;;;;;;;29.13;15.00;;;;;;;7.02;58.38;99418.09;4983021;28;20129;-78
2024/04/01 02:36:13;;;;;;;34.75;15.05;;;;;;;7.07;58.24;99418.72;4952943;28;20038;-79
2024/04/01 02:38:38;;;;;;;27.08;15.13;;;;;;;6.94;58.50;99407.25;4968161;28;20166;-77
2024/04/01 02:41:04;;;;;;;32.85;15.95;;;;;;;7.00;58.19;99413.00;4979540;28;20671;-78
2024/04/01 02:43:29;;;;;;;29.65;14.65;;;;;;;6.85;58.60;99409.38;4968313;28;20042;-78
2024/04/01 02:45:55;;;;;;;29.02;15.50;;;;;;;6.78;58.60;99409.75;4971545;28;20091;-79
2024/04/01 02:48:21;;;;;;;38.35;16.95;;;;;;;6.73;58.81;99406.50;4967566;28;20041;-79
2024/04/01 02:50:47;;;;;;;35.28;15.70;;;;;;;6.80;58.73;99411.34;4970868;28;20042;-79
2024/04/01 02:53:13;;;;;;;34.40;15.57;;;;;;;6.77;58.54;99415.84;4953855;28;20037;-78
2024/04/01 02:55:38;;;;;;;28.75;16.75;;;;;;;6.73;58.97;99409.97;4969594;28;20115;-78
2024/04/01 02:58:04;;;;;;;33.03;15.73;;;;;;;6.70;58.76;99410.09;4967820;28;20042;-79
2024/04/01 03:00:29;;;;;;;34.85;17.33;;;;;;;6.69;58.68;99404.06;4970611;28;20097;-78
2024/04/01 03:02:56;;;;;;;31.30;17.25;;;;;;;6.74;58.88;99410.78;4948670;28;22518;-79
2024/04/01 03:05:21;;;;;;;28.05;15.45;;;;;;;6.64;58.97;99412.97;4985718;28;20044;-78
2024/04/01 03:07:50;;;;;;;30.27;15.73;;;;;;;6.62;58.80;99412.19;4986934;28;20404;-79
2024/04/01 03:10:16;;;;;;;31.25;16.08;;;;;;;6.64;59.01;99410.38;4971180;28;20274;-79
2024/04/01 03:12:42;;;;;;;31.10;17.15;;;;;;;6.69;58.82;99403.22;4966507;28;20386;-78
2024/04/01 03:15:16;;;;;;;40.28;17.42;;;;;;;6.76;58.13;99408.97;4969097;28;20034;-79
2024/04/01 03:17:43;;;;;;;33.58;17.77;;;;;;;6.70;58.66;99415.28;4968732;28;20046;-79
2024/04/01 03:20:11;;;;;;;40.55;17.50;;;;;;;6.66;58.43;99417.19;4956492;28;20080;-78
2024/04/01 03:22:36;;;;;;;31.80;15.80;;;;;;;6.45;59.00;99415.59;4946927;28;20038;-79
2024/04/01 03:25:02;;;;;;;36.38;15.32;;;;;;;6.56;59.23;99402.97;4970752;28;20046;-78
2024/04/01 03:27:27;;;;;;;30.40;16.58;;;;;;;6.60;58.68;99406.25;4968685;28;20088;-79
2024/04/01 03:29:53;;;;;;;31.17;16.30;;;;;;;6.56;59.14;99415.09;4955623;28;20060;-79
2024/04/01 03:32:19;;;;;;;27.20;15.77;;;;;;;6.43;59.34;99400.09;4954245;28;20037;-78
2024/04/01 03:34:48;;;;;;;28.80;15.25;;;;;;;6.57;59.11;99391.66;4967441;28;20505;-78
2024/04/01 03:37:14;;;;;;;37.63;16.83;;;;;;;6.65;58.95;99386.09;4969708;28;20049;-79
2024/04/01 03:39:42;;;;;;;29.20;14.90;;;;;;;6.44;59.14;99398.31;4967264;28;20049;-78
2024/04/01 03:42:08;;;;;;;30.92;17.08;;;;;;;6.46;59.46;99394.78;4972347;28;20037;-79
2024/04/01 03:44:33;;;;;;;26.40;14.68;;;;;;;6.50;59.42;99398.03;4966507;28;20135;-79
2024/04/01 03:46:59;;;;;;;30.42;16.15;;;;;;;6.34;59.94;99397.91;4969258;28;20069;-78
2024/04/01 03:49:24;;;;;;;29.60;17.45;;;;;;;6.39;59.65;99395.09;4952933;28;20033;-80
2024/04/01 03:51:49;;;;;;;27.02;15.88;;;;;;;6.37;59.94;99405.53;4957388;28;20484;-80
2024/04/01 03:54:15;;;;;;;29.67;16.30;;;;;;;6.61;59.33;99397.53;4967671;28;20045;-79
2024/04/01 03:56:41;;;;;;;27.50;15.10;;;;;;;6.63;59.41;99393.13;4952363;28;20114;-77
2024/04/01 03:59:08;;;;;;;29.75;15.70;;;;;;;6.57;59.11;99393.41;4967437;28;20069;-79
2024/04/01 04:01:34;;;;;;;28.98;16.17;;;;;;;6.65;58.96;99388.72;4967365;28;20041;-78
2024/04/01 04:04:00;;;;;;;32.42;16.00;;;;;;;6.58;59.00;99395.09;4978849;28;20049;-78
2024/04/01 04:06:26;;;;;;;28.38;15.15;;;;;;;6.72;58.83;99392.69;4967199;28;20034;-79
2024/04/01 04:08:52;;;;;;;32.05;15.25;;;;;;;6.68;58.57;99401.53;4970582;28;20255;-78
2024/04/01 04:11:17;;;;;;;26.90;14.13;;;;;;;6.66;59.09;99400.75;4967938;28;20037;-78
2024/04/01 04:13:43;;;;;;;25.50;14.07;;;;;;;6.43;59.90;99402.69;4966872;28;20084;-77
2024/04/01 04:16:09;;;;;;;31.73;14.20;;;;;;;6.55;58.91;99405.63;4953392;28;20038;-78
2024/04/01 04:18:34;;;;;;;30.42;14.88;;;;;;;6.59;59.16;99401.97;4968777;28;20451;-77
2024/04/01 04:21:00;;;;;;;25.10;14.55;;;;;;;6.59;59.21;99407.16;4970586;28;20034;-79
2024/04/01 04:23:27;;;;;;;26.98;13.93;;;;;;;6.56;58.79;99402.97;4971722;28;20069;-78
2024/04/01 04:25:53;;;;;;;22.52;14.55;;;;;;;6.64;58.78;99400.84;4974917;28;20034;-77
2024/04/01 04:28:19;;;;;;;23.23;13.07;;;;;;;6.54;59.39;99389.22;4972551;28;20042;-78
2024/04/01 04:30:45;;;;;;;26.27;14.00;;;;;;;6.54;59.38;99398.75;4969411;28;22186;-78
2024/04/01 04:33:11;;;;;;;28.05;14.23;;;;;;;6.65;59.16;99394.72;4983977;28;20049;-78
2024/04/01 04:35:36;;;;;;;25.30;13.18;;;;;;;6.53;59.37;99395.31;4954983;28;20033;-78
2024/04/01 04:38:02;;;;;;;27.42;13.15;;;;;;;6.62;58.84;99391.44;4986533;28;20598;-78
2024/04/01 04:40:27;;;;;;;22.23;13.00;;;;;;;6.68;58.60;99396.34;4963691;28;20041;-79
2024/04/01 04:42:54;;;;;;;22.10;12.85;;;;;;;6.62;58.50;99397.47;4955545;28;20041;-79
2024/04/01 04:45:23;;;;;;;22.33;11.88;;;;;;;6.59;58.70;99394.19;4951790;28;20041;-79
2024/04/01 04:47:52;;;;;;;22.15;10.95;;;;;;;6.63;58.50;99390.53;4949467;28;20486;-78
2024/04/01 04:50:18;;;;;;;23.42;13.15;;;;;;;6.48;58.90;99398.13;4969995;28;20022;-79
2024/04/01 04:52:44;;;;;;;21.85;12.68;;;;;;;6.56;59.02;99396.94;4967969;28;20041;-78
2024/04/01 04:55:10;;;;;;;20.98;12.23;;;;;;;6.54;58.83;99389.22;4971654;28;20069;-78
2024/04/01 04:57:35;;;;;;;28.58;11.50;;;;;;;6.47;59.15;99388.66;4952943;28;20437;-79
2024/04/01 05:00:20;;;;;;;17.55;11.40;;;;;;;6.50;58.99;99391.09;4955625;28;20175;-77
2024/04/01 05:02:50;;;;;;;23.02;11.52;;;;;;;6.39;59.26;99395.94;4951165;28;20049;-78
2024/04/01 05:05:17;;;;;;;22.35;12.45;;;;;;;6.50;59.08;99388.50;4965386;28;20201;-78
2024/04/01 05:07:44;;;;;;;18.33;10.82;;;;;;;6.63;58.81;99393.13;4966337;28;20509;-79
2024/04/01 05:10:11;;;;;;;24.70;11.07;;;;;;;6.50;58.62;99388.50;4987529;28;20025;-79
2024/04/01 05:12:38;;;;;;;18.73;10.95;;;;;;;6.69;58.62;99387.66;4984465;28;20512;-79
2024/04/01 05:15:05;;;;;;;18.20;11.23;;;;;;;6.73;58.65;99388.31;4971081;28;20030;-78
2024/04/01 05:17:34;;;;;;;23.73;11.50;;;;;;;6.75;58.62;99386.50;4984960;28;20121;-79
2024/04/01 05:20:00;;;;;;;26.90;12.07;;;;;;;6.75;58.54;99392.53;4970976;28;20042;-79
2024/04/01 05:22:26;;;;;;;20.73;12.35;;;;;;;6.75;58.71;99392.53;4958482;28;20052;-78
2024/04/01 05:24:53;;;;;;;23.55;11.05;;;;;;;6.75;58.65;99402.91;4960149;28;20036;-79
2024/04/01 05:27:18;;;;;;;20.60;10.02;;;;;;;6.71;58.68;99396.22;4986014;28;20042;-79
2024/04/01 05:29:44;;;;;;;23.33;12.05;;;;;;;6.72;58.88;99397.88;4966558;28;20041;-78
2024/04/01 05:32:09;;;;;;;22.55;11.85;;;;;;;6.62;59.25;99396.63;4968425;28;20183;-78
2024/04/01 05:34:37;;;;;;;18.92;11.00;;;;;;;6.75;58.80;99391.69;4984583;28;20054;-77
2024/04/01 05:37:05;;;;;;;22.95;11.45;;;;;;;6.86;58.70;99390.28;4951117;28;20508;-79
2024/04/01 05:39:31;;;;;;;18.42;10.73;;;;;;;6.85;58.50;99390.34;4984771;28;20431;-80
2024/04/01 05:41:57;;;;;;;22.98;11.77;;;;;;;6.81;58.72;99392.25;4964312;28;20022;-79
2024/04/01 05:44:22;;;;;;;18.15;10.27;;;;;;;6.93;58.64;99395.16;4970127;28;20038;-78
2024/04/01 05:46:48;;;;;;;17.02;10.60;;;;;;;7.07;58.79;99384.97;4966746;28;20124;-79
2024/04/01 05:49:14;;;;;;;19.80;10.63;;;;;;;7.16;58.30;99389.69;4968725;28;20881;-77
2024/04/01 05:51:40;;;;;;;24.67;10.73;;;;;;;7.21;58.25;99395.50;4954319;28;20036;-79
2024/04/01 05:54:05;;;;;;;18.58;10.48;;;;;;;7.31;58.35;99390.66;4972672;28;20128;-78
2024/04/01 05:56:31;;;;;;;15.48;10.60;;;;;;;7.42;58.23;99371.94;4972989;28;20124;-79
2024/04/01 05:58:56;;;;;;;19.15;10.40;;;;;;;7.37;58.04;99379.16;4965244;28;20038;-79
2024/04/01 06:01:22;;;;;;;25.77;11.27;;;;;;;7.27;57.81;99384.81;4986573;28;20532;-79
2024/04/01 06:03:48;;;;;;;18.02;10.93;;;;;;;7.19;58.26;99393.91;4966026;28;20038;-78
2024/04/01 06:06:13;;;;;;;15.48;10.68;;;;;;;7.20;58.22;99404.22;4988057;28;20095;-78
2024/04/01 06:08:39;;;;;;;21.00;11.23;;;;;;;7.17;58.27;99409.56;4943614;28;20131;-79
2024/04/01 06:11:04;;;;;;;22.27;11.15;;;;;;;7.06;58.46;99420.47;4989969;28;20048;-79
2024/04/01 06:13:30;;;;;;;19.30;11.13;;;;;;;6.97;58.66;99422.69;4966578;28;20285;-79
2024/04/01 06:15:56;;;;;;;27.77;11.93;;;;;;;6.90;58.95;99433.34;4969300;28;20067;-78
2024/04/01 06:18:22;;;;;;;20.40;10.80;;;;;;;6.98;58.81;99429.56;4959575;28;20038;-79
2024/04/01 06:20:48;;;;;;;18.90;10.38;;;;;;;6.93;58.76;99427.16;4950857;28;20115;-78
2024/04/01 06:23:14;;;;;;;20.20;10.27;;;;;;;7.01;58.98;99432.00;4953017;28;20041;-80
2024/04/01 06:25:42;;;;;;;21.05;11.93;;;;;;;7.10;59.04;99434.16;4969508;28;20046;-79
2024/04/01 06:28:08;;;;;;;19.58;10.45;;;;;;;7.15;59.24;99421.78;4968566;28;20044;-78
2024/04/01 06:30:34;;;;;;;22.27;10.18;;;;;;;7.19;58.96;99418.13;4970183;28;20026;-77
2024/04/01 06:33:00;;;;;;;21.70;10.85;;;;;;;7.22;58.93;99414.53;4951135;28;20121;-77
2024/04/01 06:35:26;;;;;;;22.17;10.57;;;;;;;7.29;58.86;99411.56;4966022;28;20048;-78
2024/04/01 06:37:51;;;;;;;19.08;9.95;;;;;;;7.33;58.66;99405.31;4978032;28;20038;-78
2024/04/01 06:40:17;;;;;;;17.98;10.38;;;;;;;7.35;58.68;99401.78;4952147;28;20460;-79
2024/04/01 06:42:43;;;;;;;20.77;11.77;;;;;;;7.37;58.88;99412.94;4950988;28;20038;-78
2024/04/01 06:45:08;;;;;;;23.08;11.23;;;;;;;7.39;59.03;99411.09;4952433;28;20621;-76
2024/04/01 06:47:33;;;;;;;17.15;9.63;;;;;;;7.41;58.90;99411.88;4968375;28;20046;-79
2024/04/01 06:49:59;;;;;;;16.85;10.73;;;;;;;7.42;58.71;99414.41;4966954;28;20038;-78
2024/04/01 06:52:24;;;;;;;20.25;10.05;;;;;;;7.47;59.01;99412.41;4986365;28;20045;-79
2024/04/01 06:54:50;;;;;;;14.68;9.90;;;;;;;7.58;58.71;99409.28;4965307;28;20038;-78
2024/04/01 06:57:16;;;;;;;19.88;9.45;;;;;;;7.60;58.64;99409.19;4989101;28;20054;-78
2024/04/01 06:59:41;;;;;;;19.10;11.50;;;;;;;7.56;58.68;99403.34;4950502;28;20381;-78
2024/04/01 07:02:07;;;;;;;20.55;12.05;;;;;;;7.53;58.74;99400.84;4966965;28;20164;-75
2024/04/01 07:04:32;;;;;;;22.73;12.23;;;;;;;7.49;59.13;99394.13;4968903;28;20342;-78
2024/04/01 07:06:58;;;;;;;20.33;11.95;;;;;;;7.56;59.32;99398.13;4949342;28;20045;-78
2024/04/01 07:09:23;;;;;;;22.70;11.45;;;;;;;7.67;59.48;99401.03;4961878;28;20117;-78
2024/04/01 07:11:49;;;;;;;19.70;10.32;;;;;;;7.76;59.19;99401.44;4981765;28;20386;-78
2024/04/01 07:14:14;;;;;;;23.73;12.07;;;;;;;7.78;59.11;99400.47;4967738;28;20049;-78
2024/04/01 07:16:40;;;;;;;20.80;12.02;;;;;;;7.83;59.04;99402.84;4966048;28;20057;-78
2024/04/01 07:19:06;;;;;;;25.85;12.38;;;;;;;7.80;59.27;99402.97;4986789;28;20466;-76
2024/04/01 07:21:32;;;;;;;26.65;12.30;;;;;;;7.73;59.22;99405.06;4965853;28;20377;-78
2024/04/01 07:23:58;;;;;;;21.13;12.23;;;;;;;7.72;59.57;99419.00;4964935;28;20049;-77
2024/04/01 07:26:23;;;;;;;20.35;11.45;;;;;;;7.71;59.33;99415.56;4966494;28;20057;-78
2024/04/01 07:28:49;;;;;;;19.77;11.65;;;;;;;7.74;59.92;99419.75;4947567;28;20639;-78
2024/04/01 07:31:14;;;;;;;24.05;11.77;;;;;;;7.74;59.48;99420.59;4966631;28;20083;-78
2024/04/01 07:33:40;;;;;;;25.33;12.23;;;;;;;7.67;60.04;99424.44;4961516;28;20061;-80
2024/04/01 07:36:06;;;;;;;29.85;12.70;;;;;;;7.56;60.12;99425.88;4948040;28;20481;-76
2024/04/01 07:38:31;;;;;;;21.73;11.45;;;;;;;7.37;60.31;99426.75;4948805;28;20041;-79
2024/04/01 07:40:57;;;;;;;22.17;11.65;;;;;;;7.41;60.41;99420.50;4962316;28;20030;-77
2024/04/01 07:43:22;;;;;;;23.70;11.95;;;;;;;7.47;60.26;99421.97;4956545;28;20042;-76
2024/04/01 07:45:51;;;;;;;26.83;12.35;;;;;;;7.41;60.14;99424.88;4941479;28;20037;-78
2024/04/01 07:48:17;;;;;;;19.58;11.48;;;;;;;7.42;60.63;99429.13;4959145;28;20046;-78
2024/04/01 07:50:43;;;;;;;22.27;11.20;;;;;;;7.40;60.40;99428.38;4948596;28;20442;-78
2024/04/01 07:53:09;;;;;;;23.67;11.93;;;;;;;7.48;60.63;99427.06;4983424;28;20045;-78
2024/04/01 07:55:35;;;;;;;21.92;11.57;;;;;;;7.53;60.50;99424.22;4957249;28;20057;-77
2024/04/01 07:58:00;;;;;;;20.92;12.32;;;;;;;7.57;60.48;99431.00;4979214;28;20503;-76
2024/04/01 08:00:26;;;;;;;29.73;14.93;;;;;;;7.51;60.55;99428.66;4964460;28;20165;-77
2024/04/01 08:02:51;;;;;;;25.33;13.07;;;;;;;7.56;60.53;99426.72;4955042;28;20054;-78
2024/04/01 08:05:17;;;;;;;22.70;13.32;;;;;;;7.65;60.36;99430.63;4968385;28;20065;-78
2024/04/01 08:07:42;;;;;;;22.77;12.80;;;;;;;7.63;60.59;99425.50;4966383;28;20040;-75
2024/04/01 08:10:08;;;;;;;21.98;12.02;;;;;;;7.66;60.65;99427.09;4953172;28;20570;-76
2024/04/01 08:12:33;;;;;;;26.88;13.82;;;;;;;7.69;60.54;99419.13;4952859;28;20041;-76
2024/04/01 08:14:58;;;;;;;21.38;13.02;;;;;;;7.72;60.76;99427.63;4968465;28;20038;-78
2024/04/01 08:17:24;;;;;;;15.30;10.85;;;;;;;7.73;60.68;99424.13;4985568;28;20069;-77
2024/04/01 08:19:50;;;;;;;20.75;13.07;;;;;;;7.80;60.63;99426.38;4985217;28;20515;-79
2024/04/01 08:22:15;;;;;;;24.05;13.40;;;;;;;7.82;60.71;99427.16;4968942;28;20050;-75
2024/04/01 08:24:41;;;;;;;23.73;14.50;;;;;;;7.74;60.47;99431.00;4988167;28;20069;-76
2024/04/01 08:27:07;;;;;;;26.30;14.15;;;;;;;7.77;60.74;99431.75;4964372;28;20475;-76
2024/04/01 08:29:32;;;;;;;25.80;13.15;;;;;;;7.84;60.89;99426.16;4968928;28;20038;-77
2024/04/01 08:31:57;;;;;;;20.60;12.48;;;;;;;7.94;61.04;99431.72;4984556;28;20030;-75
2024/04/01 08:34:23;;;;;;;24.20;12.25;;;;;;;7.99;60.59;99434.91;4985084;28;20537;-78
2024/04/01 08:36:48;;;;;;;19.45;12.68;;;;;;;7.99;60.54;99442.72;4984152;28;20065;-76
2024/04/01 08:39:14;;;;;;;17.33;11.68;;;;;;;7.95;60.36;99442.03;4968055;28;20041;-77
2024/04/01 08:41:45;;;;;;;20.65;12.68;;;;;;;7.70;60.84;99452.88;4968315;28;20061;-78
2024/04/01 08:44:12;;;;;;;25.23;14.13;;;;;;;7.44;61.51;99461.09;4961339;28;20048;-77
2024/04/01 08:46:44;;;;;;;23.50;14.57;;;;;;;7.37;61.97;99468.34;4969100;28;20288;-78
2024/04/01 08:49:12;;;;;;;25.73;14.68;;;;;;;7.36;61.99;99469.28;4983193;28;20119;-76
2024/04/01 08:51:38;;;;;;;20.33;13.75;;;;;;;7.20;62.51;99468.31;4970168;28;20026;-76
2024/04/01 08:54:05;;;;;;;24.55;14.70;;;;;;;7.35;62.67;99467.59;4964682;28;20504;-78
2024/04/01 08:56:32;;;;;;;26.58;17.10;;;;;;;7.47;62.47;99458.38;4953052;28;20053;-76
2024/04/01 08:58:58;;;;;;;24.83;14.48;;;;;;;7.48;62.24;99447.88;4963534;28;20042;-76
2024/04/01 09:01:24;;;;;;;32.33;16.60;;;;;;;7.53;62.40;99460.63;4971470;28;20512;-77
2024/04/01 09:03:51;;;;;;;24.13;15.35;;;;;;;7.48;62.53;99467.81;4957478;28;20571;-75
2024/04/01 09:06:20;;;;;;;26.35;15.30;;;;;;;7.62;62.68;99460.19;4955657;28;20420;-75
2024/04/01 09:08:47;;;;;;;24.30;15.82;;;;;;;7.90;62.42;99462.25;4981181;28;20640;-78
2024/04/01 09:11:13;;;;;;;26.77;15.48;;;;;;;7.92;61.80;99464.78;4974976;28;20037;-77
2024/04/01 09:13:40;;;;;;;23.80;16.45;;;;;;;7.98;62.08;99455.81;4956585;28;20037;-75
2024/04/01 09:16:06;;;;;;;163.82;50.90;;;;;;;7.84;62.49;99457.34;4970123;28;20034;-76
2024/04/01 09:18:36;;;;;;;27.08;16.73;;;;;;;7.87;61.97;99462.41;4967321;28;20060;-75
2024/04/01 09:21:04;;;;;;;23.70;16.52;;;;;;;7.90;62.28;99461.41;4949816;28;20046;-75
2024/04/01 09:23:33;;;;;;;24.98;15.30;;;;;;;7.83;62.49;99454.84;4971407;28;20043;-78
2024/04/01 09:26:02;;;;;;;27.10;17.23;;;;;;;7.81;62.16;99456.69;4960308;28;20516;-75
2024/04/01 09:28:27;;;;;;;24.50;16.33;;;;;;;7.94;62.00;99444.75;4990580;28;20076;-78
2024/04/01 09:30:53;;;;;;;26.15;16.92;;;;;;;8.00;62.17;99451.38;4968662;28;20112;-78
2024/04/01 09:33:19;;;;;;;27.85;16.00;;;;;;;8.01;61.90;99451.31;4973299;28;20037;-78
2024/04/01 09:35:48;;;;;;;26.50;16.50;;;;;;;8.04;62.11;99445.91;4970352;28;20041;-78
2024/04/01 09:38:13;;;;;;;25.85;16.63;;;;;;;8.09;61.63;99441.34;4971353;28;20030;-75
2024/04/01 09:40:39;;;;;;;24.02;17.02;;;;;;;8.15;61.71;99440.16;4964485;28;20041;-76
2024/04/01 09:43:06;;;;;;;29.33;16.77;;;;;;;8.18;61.65;99434.78;4983961;28;20250;-78
2024/04/01 09:45:38;;;;;;;24.85;17.33;;;;;;;8.20;61.62;99437.31;4953699;28;20042;-76
2024/04/01 09:48:07;;;;;;;26.83;17.67;;;;;;;8.27;61.56;99438.66;4967826;28;20048;-76
2024/04/01 09:50:37;;;;;;;26.02;16.55;;;;;;;8.27;61.06;99433.47;4967232;28;20026;-78
2024/04/01 09:53:02;;;;;;;26.90;15.95;;;;;;;8.25;61.03;99432.69;4983074;28;20137;-75
2024/04/01 09:55:32;;;;;;;30.33;16.95;;;;;;;8.15;61.34;99435.78;4971673;28;20121;-78
2024/04/01 09:58:24;;;;;;;27.08;16.90;;;;;;;8.04;61.21;99438.13;4986423;28;20065;-78
2024/04/01 10:01:21;;;;;;;27.48;17.20;;;;;;;8.12;61.53;99440.34;4982349;28;20069;-78
2024/04/01 10:04:27;;;;;;;30.58;18.75;;;;;;;8.09;61.50;99438.75;4983750;28;20038;-79
2024/04/01 10:07:11;;;;;;;25.15;15.77;;;;;;;8.15;61.44;99435.78;4890617;28;20107;-75
2024/04/01 10:10:21;;;;;;;33.03;17.38;;;;;;;8.22;61.54;99431.09;4991308;28;20111;-76
2024/04/01 10:13:02;;;;;;;30.98;18.90;;;;;;;8.28;61.43;99432.56;4909726;28;20045;-79
2024/04/01 10:15:55;;;;;;;27.65;17.70;;;;;;;8.38;61.33;99430.28;4971752;28;20369;-78
2024/04/01 10:18:26;;;;;;;33.75;17.77;;;;;;;8.44;61.35;99428.19;4973604;28;20345;-77
2024/04/01 10:21:10;;;;;;;28.10;18.15;;;;;;;8.46;61.02;99428.94;4986988;28;20066;-78
2024/04/01 10:24:00;;;;;;;36.65;20.40;;;;;;;8.50;61.25;99425.25;4987414;28;20413;-77
2024/04/01 10:26:44;;;;;;;33.17;19.10;;;;;;;8.64;61.14;99432.31;4987025;28;20034;-76
2024/04/01 10:29:39;;;;;;;26.55;16.42;;;;;;;8.56;60.70;99429.28;4942522;28;20037;-77
2024/04/01 10:32:52;;;;;;;31.40;18.63;;;;;;;8.64;60.74;99431.47;4950283;28;20029;-78
2024/04/01 10:35:26;;;;;;;30.60;18.75;;;;;;;8.66;60.63;99429.63;4955466;28;20038;-77
2024/04/01 10:38:01;;;;;;;24.33;16.30;;;;;;;8.66;60.66;99429.63;4951502;28;20370;-77
2024/04/01 10:40:42;;;;;;;25.60;16.38;;;;;;;8.53;61.02;99417.28;4988592;28;20128;-77
2024/04/01 10:43:11;;;;;;;27.25;16.65;;;;;;;8.59;60.62;99418.72;4965028;28;20524;-78
2024/04/01 10:46:26;;;;;;;26.42;15.27;;;;;;;8.69;60.60;99419.03;4971789;28;20412;-80
2024/04/01 10:49:33;;;;;;;25.60;15.32;;;;;;;8.69;60.97;99426.84;4944619;28;20046;-78
2024/04/01 10:52:32;;;;;;;24.02;15.30;;;;;;;8.76;60.66;99425.59;4943856;28;20041;-78
2024/04/01 10:55:01;;;;;;;20.85;15.15;;;;;;;8.88;60.69;99414.53;4950414;28;20033;-77
2024/04/01 10:58:09;;;;;;;17.67;14.45;;;;;;;8.84;60.96;99418.22;4989880;28;20052;-77
2024/04/01 11:00:44;;;;;;;23.45;13.85;;;;;;;8.88;61.07;99409.31;4957277;28;20128;-77
2024/04/01 11:03:24;;;;;;;20.88;13.45;;;;;;;8.77;61.11;99404.69;4960502;28;20049;-76
2024/04/01 11:06:14;;;;;;;15.48;11.32;;;;;;;8.93;61.17;99404.66;4993575;28;20061;-77
2024/04/01 11:08:58;;;;;;;13.40;9.32;;;;;;;9.20;60.63;99404.03;4971226;28;20363;-76
2024/04/01 11:11:50;;;;;;;9.05;7.07;;;;;;;9.35;60.57;99408.34;4962503;28;20077;-76
2024/04/01 11:14:18;;;;;;;11.73;6.93;;;;;;;9.37;60.47;99409.09;4984236;28;20560;-76
2024/04/01 11:16:51;;;;;;;10.40;8.38;;;;;;;9.54;59.64;99404.66;4989097;28;20263;-76
2024/04/01 11:19:38;;;;;;;9.85;8.32;;;;;;;9.72;60.13;99400.13;4978216;28;20571;-75
2024/04/01 11:22:08;;;;;;;13.25;10.07;;;;;;;9.90;59.86;99395.59;4950121;28;20038;-76
2024/04/01 11:24:49;;;;;;;12.88;8.95;;;;;;;9.77;59.32;99398.94;4963851;28;20079;-76
2024/04/01 11:27:43;;;;;;;14.73;10.70;;;;;;;9.78;59.36;99392.75;4963590;28;20374;-76
2024/04/01 11:30:22;;;;;;;17.67;10.55;;;;;;;9.57;59.69;99387.06;4989382;28;20120;-76
2024/04/01 11:32:55;;;;;;;18.85;9.23;;;;;;;10.05;59.35;99386.81;4952528;28;20140;-77
2024/04/01 11:35:26;;;;;;;17.77;9.25;;;;;;;10.09;58.90;99390.94;4975040;28;20030;-77